createdAt,value
2019-03-23T00:01:37.671Z,37.10
2019-03-23T00:04:06.112Z,31.25
2019-03-23T00:06:36.094Z,31.82
2019-03-23T00:09:05.440Z,28.00
2019-03-23T00:11:33.960Z,25.92
2019-03-23T00:14:02.666Z,22.17
2019-03-23T00:16:31.138Z,23.73
2019-03-23T00:18:59.595Z,19.70
2019-03-23T00:21:28.191Z,22.98
2019-03-23T00:23:56.761Z,21.77
2019-03-23T00:26:25.298Z,22.77
2019-03-23T00:28:53.762Z,25.88
2019-03-23T00:31:22.404Z,20.08
2019-03-23T00:33:50.878Z,20.27
2019-03-23T00:36:19.328Z,21.27
2019-03-23T00:38:47.850Z,24.98
2019-03-23T00:41:16.338Z,20.35
2019-03-23T00:43:44.767Z,21.73
2019-03-23T00:46:13.252Z,20.10
2019-03-23T00:48:41.775Z,19.77
2019-03-23T00:51:10.296Z,17.90
2019-03-23T00:53:38.772Z,21.70
2019-03-23T00:56:07.275Z,25.43
2019-03-23T00:58:35.804Z,21.20
2019-03-23T01:01:04.328Z,23.42
2019-03-23T01:03:32.958Z,20.43
2019-03-23T01:06:01.523Z,20.23
2019-03-23T01:08:29.950Z,19.05
2019-03-23T01:10:58.464Z,20.40
2019-03-23T01:13:26.926Z,19.52
2019-03-23T01:15:55.452Z,17.77
2019-03-23T01:18:23.887Z,22.80
2019-03-23T01:20:52.340Z,20.97
2019-03-23T01:23:20.837Z,17.30
2019-03-23T01:25:49.436Z,21.37
2019-03-23T01:28:17.917Z,18.67
2019-03-23T01:30:46.369Z,16.97
2019-03-23T01:33:14.824Z,22.95
2019-03-23T01:35:43.356Z,19.00
2019-03-23T01:38:11.813Z,20.90
2019-03-23T01:40:40.340Z,20.70
2019-03-23T01:43:10.614Z,17.17
2019-03-23T01:45:39.071Z,18.23
2019-03-23T01:48:07.598Z,18.20
2019-03-23T01:50:36.096Z,17.37
2019-03-23T01:53:04.566Z,20.12
2019-03-23T01:55:33.034Z,18.67
2019-03-23T01:58:01.519Z,18.45
2019-03-23T02:00:29.991Z,15.25
2019-03-23T02:02:58.480Z,17.30
2019-03-23T02:05:26.962Z,23.95
2019-03-23T02:07:55.431Z,22.05
2019-03-23T02:10:23.910Z,19.67
2019-03-23T02:12:52.457Z,21.17
2019-03-23T02:15:21.179Z,17.90
2019-03-23T02:17:49.636Z,23.40
2019-03-23T02:20:18.203Z,22.15
2019-03-23T02:22:46.682Z,19.85
2019-03-23T02:25:15.103Z,21.07
2019-03-23T02:27:43.688Z,19.85
2019-03-23T02:30:13.810Z,26.15
2019-03-23T02:32:42.374Z,23.27
2019-03-23T02:35:11.196Z,22.05
2019-03-23T02:37:39.728Z,22.77
2019-03-23T02:40:11.865Z,23.30
2019-03-23T02:42:40.379Z,21.60
2019-03-23T02:45:11.557Z,26.42
2019-03-23T02:47:40.061Z,22.65
2019-03-23T02:50:11.654Z,22.35
2019-03-23T02:52:40.107Z,24.90
2019-03-23T02:55:10.167Z,27.13
2019-03-23T02:57:38.725Z,26.17
2019-03-23T03:00:15.648Z,27.15
2019-03-23T03:02:44.139Z,23.50
2019-03-23T03:05:12.742Z,26.75
2019-03-23T03:07:43.255Z,26.25
2019-03-23T03:10:13.643Z,25.90
2019-03-23T03:12:42.071Z,23.98
2019-03-23T03:15:10.863Z,28.47
2019-03-23T03:17:39.335Z,29.45
2019-03-23T03:20:09.006Z,21.52
2019-03-23T03:22:37.429Z,21.07
2019-03-23T03:25:07.139Z,24.67
2019-03-23T03:27:35.726Z,23.98
2019-03-23T03:30:09.688Z,24.72
2019-03-23T03:32:38.491Z,27.02
2019-03-23T03:35:07.405Z,29.60
2019-03-23T03:37:35.913Z,29.98
2019-03-23T03:40:06.402Z,27.50
2019-03-23T03:42:35.029Z,30.40
2019-03-23T03:45:05.043Z,27.45
2019-03-23T03:47:33.494Z,29.60
2019-03-23T03:50:01.965Z,30.15
2019-03-23T03:52:30.489Z,27.42
2019-03-23T03:54:58.977Z,32.23
2019-03-23T03:57:27.423Z,30.57
2019-03-23T03:59:55.885Z,26.85
2019-03-23T04:02:24.368Z,34.23
2019-03-23T04:04:52.900Z,32.10
2019-03-23T04:07:21.416Z,34.75
2019-03-23T04:09:49.915Z,29.90
2019-03-23T04:12:18.423Z,39.15
2019-03-23T04:14:46.906Z,29.95
2019-03-23T04:17:15.572Z,31.85
2019-03-23T04:19:44.091Z,32.73
2019-03-23T04:22:12.573Z,40.67
2019-03-23T04:24:41.019Z,29.87
2019-03-23T04:27:09.500Z,32.75
2019-03-23T04:29:38.056Z,33.80
2019-03-23T04:32:06.503Z,30.57
2019-03-23T04:34:34.968Z,31.77
2019-03-23T04:37:03.749Z,32.03
2019-03-23T04:39:32.195Z,33.10
2019-03-23T04:42:21.492Z,29.57
2019-03-23T04:44:49.970Z,31.15
2019-03-23T04:47:18.469Z,31.15
2019-03-23T04:49:46.958Z,30.20
2019-03-23T04:52:15.427Z,32.73
2019-03-23T04:54:43.877Z,32.80
2019-03-23T04:57:12.298Z,31.05
2019-03-23T04:59:40.753Z,30.68
2019-03-23T05:02:09.222Z,30.65
2019-03-23T05:04:37.702Z,33.20
2019-03-23T05:07:06.114Z,30.57
2019-03-23T05:09:34.770Z,30.55
2019-03-23T05:12:03.183Z,31.57
2019-03-23T05:14:31.608Z,33.60
2019-03-23T05:17:01.903Z,32.28
2019-03-23T05:19:30.347Z,31.57
2019-03-23T05:21:58.770Z,29.50
2019-03-23T05:24:27.239Z,29.52
2019-03-23T05:26:55.644Z,29.48
2019-03-23T05:29:24.136Z,32.23
2019-03-23T05:31:52.634Z,34.50
2019-03-23T05:34:21.132Z,32.65
2019-03-23T05:36:49.667Z,34.83
2019-03-23T05:39:18.119Z,29.82
2019-03-23T05:41:46.578Z,28.17
2019-03-23T05:44:15.119Z,31.05
2019-03-23T05:46:43.579Z,30.97
2019-03-23T05:49:12.079Z,29.25
2019-03-23T05:51:40.495Z,29.37
2019-03-23T05:54:08.983Z,31.68
2019-03-23T05:56:37.403Z,30.02
2019-03-23T05:59:05.850Z,37.23
2019-03-23T06:01:34.316Z,31.10
2019-03-23T06:04:02.775Z,31.70
2019-03-23T06:06:31.249Z,35.03
2019-03-23T06:08:59.757Z,29.90
2019-03-23T06:11:28.224Z,34.03
2019-03-23T06:13:57.089Z,33.73
2019-03-23T06:16:25.527Z,32.75
2019-03-23T06:18:53.957Z,33.95
2019-03-23T06:21:42.773Z,33.08
2019-03-23T06:24:11.299Z,31.27
2019-03-23T06:26:39.845Z,35.65
2019-03-23T06:29:08.250Z,33.48
2019-03-23T06:31:36.722Z,31.73
2019-03-23T06:34:05.618Z,27.65
2019-03-23T06:36:34.801Z,29.42
2019-03-23T06:39:08.830Z,32.90
2019-03-23T06:41:37.310Z,27.40
2019-03-23T06:44:05.742Z,30.20
2019-03-23T06:46:34.166Z,31.15
2019-03-23T06:49:03.985Z,30.55
2019-03-23T06:51:32.466Z,34.50
2019-03-23T06:54:00.988Z,33.35
2019-03-23T06:56:29.442Z,31.65
2019-03-23T06:58:57.901Z,31.70
2019-03-23T07:01:26.412Z,29.07
2019-03-23T07:03:54.882Z,23.83
2019-03-23T07:06:23.755Z,26.62
2019-03-23T07:08:52.350Z,27.15
2019-03-23T07:11:20.836Z,26.07
2019-03-23T07:13:49.407Z,32.25
2019-03-23T07:16:17.877Z,28.50
2019-03-23T07:18:46.349Z,28.00
2019-03-23T07:21:14.846Z,22.60
2019-03-23T07:23:43.276Z,27.65
2019-03-23T07:26:11.749Z,26.90
2019-03-23T07:28:40.291Z,29.70
2019-03-23T07:31:08.822Z,25.88
2019-03-23T07:33:37.773Z,24.63
2019-03-23T07:36:06.359Z,32.05
2019-03-23T07:38:34.822Z,26.27
2019-03-23T07:41:10.387Z,30.27
2019-03-23T07:43:38.867Z,36.38
2019-03-23T07:46:07.564Z,31.20
2019-03-23T07:48:36.031Z,29.10
2019-03-23T07:51:04.735Z,27.93
2019-03-23T07:53:33.227Z,32.75
2019-03-23T07:56:01.724Z,30.52
2019-03-23T07:58:30.270Z,32.13
2019-03-23T08:00:58.750Z,29.82
2019-03-23T08:03:27.216Z,35.68
2019-03-23T08:05:55.623Z,46.75
2019-03-23T08:08:24.098Z,34.85
2019-03-23T08:10:52.530Z,41.77
2019-03-23T08:13:21.034Z,35.78
2019-03-23T08:15:49.531Z,34.90
2019-03-23T08:18:18.091Z,44.03
2019-03-23T08:20:46.569Z,35.68
2019-03-23T08:23:15.544Z,36.15
2019-03-23T08:25:43.998Z,40.10
2019-03-23T08:28:12.544Z,35.03
2019-03-23T08:30:40.953Z,35.73
2019-03-23T08:33:09.449Z,36.23
2019-03-23T08:35:37.869Z,35.28
2019-03-23T08:38:06.431Z,37.95
2019-03-23T08:40:35.942Z,33.65
2019-03-23T08:43:04.679Z,36.50
2019-03-23T08:45:33.205Z,35.73
2019-03-23T08:48:01.646Z,38.17
2019-03-23T08:50:30.305Z,33.55
2019-03-23T08:52:58.803Z,38.70
2019-03-23T08:55:27.302Z,34.23
2019-03-23T08:57:56.394Z,37.65
2019-03-23T09:00:24.947Z,37.60
2019-03-23T09:02:53.386Z,37.83
2019-03-23T09:05:21.892Z,35.52
2019-03-23T09:07:52.501Z,37.80
2019-03-23T09:10:20.487Z,39.55
2019-03-23T09:12:48.970Z,41.53
2019-03-23T09:15:17.739Z,43.52
2019-03-23T09:17:46.263Z,45.25
2019-03-23T09:20:14.888Z,36.50
2019-03-23T09:22:43.331Z,42.20
2019-03-23T09:25:11.863Z,41.95
2019-03-23T09:27:40.594Z,37.73
2019-03-23T09:30:16.175Z,37.00
2019-03-23T09:32:44.805Z,45.95
2019-03-23T09:35:13.338Z,43.87
2019-03-23T09:37:42.007Z,43.80
2019-03-23T09:40:13.402Z,46.33
2019-03-23T09:42:42.034Z,44.53
2019-03-23T09:45:10.674Z,42.55
2019-03-23T09:47:39.864Z,44.77
2019-03-23T09:50:10.218Z,44.03
2019-03-23T09:52:38.843Z,45.25
2019-03-23T09:55:11.664Z,41.73
2019-03-23T09:57:40.187Z,47.30
2019-03-23T10:00:15.127Z,43.20
2019-03-23T10:02:43.591Z,39.65
2019-03-23T10:05:12.215Z,41.37
2019-03-23T10:07:40.633Z,45.98
2019-03-23T10:10:09.590Z,48.60
2019-03-23T10:12:38.001Z,48.00
2019-03-23T10:15:08.408Z,49.58
2019-03-23T10:17:36.898Z,42.98
2019-03-23T10:20:07.030Z,44.60
2019-03-23T10:22:35.581Z,44.77
2019-03-23T10:25:05.923Z,46.15
2019-03-23T10:27:34.407Z,44.50
2019-03-23T10:30:03.296Z,45.98
2019-03-23T10:32:31.773Z,42.65
2019-03-23T10:35:00.455Z,48.15
2019-03-23T10:37:28.874Z,42.20
2019-03-23T10:39:57.410Z,45.55
2019-03-23T10:42:25.832Z,41.55
2019-03-23T10:44:54.270Z,44.03
2019-03-23T10:47:22.881Z,45.28
2019-03-23T10:49:57.294Z,49.48
2019-03-23T10:52:25.763Z,50.55
2019-03-23T10:54:54.207Z,45.10
2019-03-23T10:57:22.826Z,47.15
2019-03-23T10:59:51.271Z,47.83
2019-03-23T11:02:19.915Z,46.35
2019-03-23T11:04:48.382Z,46.20
2019-03-23T11:07:16.875Z,43.28
2019-03-23T11:09:45.532Z,47.00
2019-03-23T11:12:15.402Z,47.05
2019-03-23T11:14:49.586Z,50.38
2019-03-23T11:17:18.055Z,45.25
2019-03-23T11:19:46.522Z,47.62
2019-03-23T11:22:15.090Z,48.90
2019-03-23T11:24:43.509Z,46.75
2019-03-23T11:27:11.975Z,43.87
2019-03-23T11:29:40.394Z,45.90
2019-03-23T11:32:08.850Z,55.63
2019-03-23T11:34:37.340Z,55.33
2019-03-23T11:37:05.912Z,48.73
2019-03-23T11:39:34.656Z,55.75
2019-03-23T11:42:03.162Z,54.10
2019-03-23T11:44:31.571Z,54.23
2019-03-23T11:47:00.036Z,52.40
2019-03-23T11:49:28.486Z,53.58
2019-03-23T11:51:56.918Z,53.95
2019-03-23T11:54:26.368Z,53.28
2019-03-23T11:56:55.928Z,57.10
2019-03-23T11:59:24.889Z,51.20
2019-03-23T12:01:53.413Z,53.95
2019-03-23T12:04:21.866Z,56.25
2019-03-23T12:06:50.278Z,58.15
2019-03-23T12:09:18.750Z,51.40
2019-03-23T12:11:47.186Z,58.40
2019-03-23T12:14:15.671Z,53.23
2019-03-23T12:16:44.175Z,57.13
2019-03-23T12:19:12.636Z,59.67
2019-03-23T12:21:41.119Z,58.65
2019-03-23T12:24:09.543Z,58.23
2019-03-23T12:26:38.106Z,60.23
2019-03-23T12:29:06.554Z,57.43
2019-03-23T12:31:35.115Z,60.75
2019-03-23T12:34:03.668Z,60.12
2019-03-23T12:36:32.172Z,57.08
2019-03-23T12:39:00.876Z,59.93
2019-03-23T12:41:29.852Z,62.75
2019-03-23T12:43:58.277Z,69.50
2019-03-23T12:46:26.741Z,64.58
2019-03-23T12:48:55.175Z,64.70
2019-03-23T12:51:23.762Z,61.92
2019-03-23T12:53:52.259Z,61.10
2019-03-23T12:56:20.783Z,67.37
2019-03-23T12:58:49.257Z,60.98
2019-03-23T13:01:17.703Z,68.80
2019-03-23T13:03:46.212Z,62.40
2019-03-23T13:06:14.674Z,60.90
2019-03-23T13:08:43.353Z,61.70
2019-03-23T13:11:11.842Z,67.10
2019-03-23T13:13:40.349Z,61.35
2019-03-23T13:16:10.376Z,66.95
2019-03-23T13:18:38.846Z,64.47
2019-03-23T13:21:07.331Z,65.67
2019-03-23T13:23:35.769Z,71.97
2019-03-23T13:26:04.281Z,70.55
2019-03-23T13:28:32.815Z,69.42
2019-03-23T13:31:01.291Z,67.60
2019-03-23T13:33:29.760Z,63.95
2019-03-23T13:36:05.866Z,66.77
2019-03-23T13:38:34.321Z,66.42
2019-03-23T13:41:02.781Z,65.15
2019-03-23T13:43:31.244Z,61.68
2019-03-23T13:45:59.727Z,64.90
2019-03-23T13:48:28.339Z,65.25
2019-03-23T13:50:56.857Z,70.97
2019-03-23T13:53:25.338Z,67.22
2019-03-23T13:55:53.814Z,71.85
2019-03-23T13:58:22.320Z,70.00
2019-03-23T14:00:50.783Z,77.42
2019-03-23T14:03:19.360Z,74.37
2019-03-23T14:05:47.827Z,69.82
2019-03-23T14:08:16.287Z,67.40
2019-03-23T14:10:44.763Z,75.12
2019-03-23T14:13:13.195Z,77.87
2019-03-23T14:15:41.755Z,73.62
2019-03-23T14:18:10.233Z,80.07
2019-03-23T14:20:38.644Z,82.67
2019-03-23T14:23:07.127Z,83.03
2019-03-23T14:25:35.600Z,81.42
2019-03-23T14:28:04.216Z,78.37
2019-03-23T14:30:32.677Z,81.42
2019-03-23T14:33:01.113Z,78.28
2019-03-23T14:35:29.560Z,83.52
2019-03-23T14:37:58.025Z,81.85
2019-03-23T14:40:26.521Z,82.50
2019-03-23T14:42:55.011Z,85.72
2019-03-23T14:45:23.544Z,87.42
2019-03-23T14:47:51.966Z,82.57
2019-03-23T14:50:20.473Z,87.17
2019-03-23T14:52:49.031Z,82.08
2019-03-23T14:55:17.614Z,88.33
2019-03-23T14:57:46.969Z,88.75
2019-03-23T15:00:18.535Z,91.12
2019-03-23T15:02:46.952Z,83.37
2019-03-23T15:05:15.434Z,88.17
2019-03-23T15:07:43.900Z,91.78
2019-03-23T15:10:12.616Z,83.30
2019-03-23T15:12:41.050Z,84.15
2019-03-23T15:15:09.757Z,89.28
2019-03-23T15:17:48.220Z,88.45
2019-03-23T15:20:08.529Z,84.20
2019-03-23T15:22:37.047Z,89.52
2019-03-23T15:25:09.085Z,94.20
2019-03-23T15:27:37.582Z,100.15
2019-03-23T15:30:09.577Z,96.42
2019-03-23T15:32:38.187Z,101.75
2019-03-23T15:35:11.577Z,107.50
2019-03-23T15:37:40.933Z,103.62
2019-03-23T15:40:10.262Z,107.72
2019-03-23T15:42:38.983Z,101.22
2019-03-23T15:45:15.378Z,104.25
2019-03-23T15:47:45.294Z,102.60
2019-03-23T15:50:13.941Z,106.87
2019-03-23T15:52:42.422Z,107.75
2019-03-23T15:55:11.032Z,117.55
2019-03-23T15:57:39.486Z,113.08
2019-03-23T16:00:10.410Z,113.42
2019-03-23T16:02:38.908Z,107.97
2019-03-23T16:05:08.470Z,108.37
2019-03-23T16:07:37.022Z,111.03
2019-03-23T16:10:09.004Z,115.95
2019-03-23T16:12:37.910Z,118.72
2019-03-23T16:15:14.603Z,111.97
2019-03-23T16:17:43.202Z,124.38
2019-03-23T16:20:12.175Z,125.70
2019-03-23T16:22:41.129Z,133.12
2019-03-23T16:25:10.626Z,128.70
2019-03-23T16:27:39.063Z,129.18
2019-03-23T16:30:10.311Z,130.37
2019-03-23T16:32:38.813Z,131.78
2019-03-23T16:35:10.324Z,136.47
2019-03-23T16:37:38.842Z,137.30
2019-03-23T16:40:10.840Z,136.85
2019-03-23T16:42:45.574Z,129.23
2019-03-23T16:45:12.409Z,131.80
2019-03-23T16:47:40.949Z,132.18
2019-03-23T16:50:09.808Z,132.65
2019-03-23T16:52:38.902Z,124.25
2019-03-23T16:55:09.165Z,142.05
2019-03-23T16:57:37.627Z,136.28
2019-03-23T17:00:07.636Z,135.97
2019-03-23T17:02:36.156Z,139.07
2019-03-23T17:05:05.602Z,140.55
2019-03-23T17:07:34.154Z,131.00
2019-03-23T17:10:02.593Z,131.20
2019-03-23T17:12:31.024Z,130.52
2019-03-23T17:14:59.546Z,125.92
2019-03-23T17:17:28.010Z,134.50
2019-03-23T17:19:56.465Z,132.57
2019-03-23T17:22:24.962Z,122.58
2019-03-23T17:24:53.400Z,130.35
2019-03-23T17:27:21.848Z,130.43
2019-03-23T17:29:50.388Z,129.07
2019-03-23T17:32:18.923Z,128.72
2019-03-23T17:34:47.386Z,133.80
2019-03-23T17:37:16.130Z,137.03
2019-03-23T17:39:44.552Z,135.72
2019-03-23T17:42:13.153Z,136.68
2019-03-23T17:44:42.415Z,130.75
2019-03-23T17:47:10.945Z,127.02
2019-03-23T17:49:39.551Z,131.45
2019-03-23T17:52:07.982Z,131.40
2019-03-23T17:54:36.436Z,140.43
2019-03-23T17:57:04.872Z,132.97
2019-03-23T17:59:33.377Z,130.80
2019-03-23T18:02:01.863Z,134.85
2019-03-23T18:04:30.369Z,128.75
2019-03-23T18:06:58.894Z,125.47
2019-03-23T18:09:27.378Z,130.78
2019-03-23T18:11:55.862Z,131.60
2019-03-23T18:14:24.494Z,126.70
2019-03-23T18:16:53.035Z,128.05
2019-03-23T18:19:21.600Z,141.03
2019-03-23T18:21:50.034Z,133.18
2019-03-23T18:24:20.133Z,124.38
2019-03-23T18:26:48.587Z,121.65
2019-03-23T18:29:17.053Z,129.63
2019-03-23T18:31:45.506Z,162.68
2019-03-23T18:34:13.997Z,145.22
2019-03-23T18:36:42.477Z,143.78
2019-03-23T18:39:11.038Z,154.32
2019-03-23T18:41:39.470Z,152.40
2019-03-23T18:44:15.732Z,152.95
2019-03-23T18:46:38.542Z,158.42
2019-03-23T18:49:07.117Z,153.75
2019-03-23T18:51:35.610Z,146.55
2019-03-23T18:54:04.128Z,146.90
2019-03-23T18:56:32.587Z,144.05
2019-03-23T18:59:01.062Z,145.53
2019-03-23T19:01:29.614Z,137.82
2019-03-23T19:03:58.147Z,134.82
2019-03-23T19:06:26.599Z,137.47
2019-03-23T19:08:55.097Z,143.30
2019-03-23T19:11:26.396Z,144.15
2019-03-23T19:13:55.008Z,148.82
2019-03-23T19:16:23.485Z,142.77
2019-03-23T19:18:51.990Z,133.37
2019-03-23T19:21:20.450Z,126.50
2019-03-23T19:23:48.934Z,117.28
2019-03-23T19:26:17.437Z,113.10
2019-03-23T19:28:46.148Z,105.63
2019-03-23T19:31:14.594Z,113.03
2019-03-23T19:33:43.037Z,101.75
2019-03-23T19:36:13.148Z,101.10
2019-03-23T19:38:41.601Z,96.92
2019-03-23T19:41:10.107Z,100.70
2019-03-23T19:43:48.426Z,95.50
2019-03-23T19:46:08.946Z,98.90
2019-03-23T19:48:37.447Z,87.60
2019-03-23T19:51:06.015Z,87.45
2019-03-23T19:53:34.543Z,77.50
2019-03-23T19:56:03.031Z,83.10
2019-03-23T19:58:31.491Z,81.78
2019-03-23T20:00:59.973Z,80.03
2019-03-23T20:03:28.467Z,78.45
2019-03-23T20:05:56.930Z,75.42
2019-03-23T20:08:25.645Z,77.92
2019-03-23T20:10:54.149Z,75.83
2019-03-23T20:13:22.771Z,77.05
2019-03-23T20:15:51.354Z,77.15
2019-03-23T20:18:19.890Z,71.42
2019-03-23T20:20:48.402Z,75.08
2019-03-23T20:23:16.892Z,74.40
2019-03-23T20:25:45.486Z,73.17
2019-03-23T20:28:13.975Z,77.55
2019-03-23T20:30:42.652Z,67.87
2019-03-23T20:33:19.074Z,73.22
2019-03-23T20:35:41.320Z,77.25
2019-03-23T20:38:09.854Z,69.22
2019-03-23T20:40:38.292Z,71.97
2019-03-23T20:43:07.446Z,67.05
2019-03-23T20:45:35.890Z,74.17
2019-03-23T20:48:06.720Z,73.62
2019-03-23T20:50:35.853Z,70.20
2019-03-23T20:53:04.482Z,71.02
2019-03-23T20:55:33.014Z,67.62
2019-03-23T20:58:01.442Z,72.08
2019-03-23T21:00:32.478Z,69.77
2019-03-23T21:03:05.771Z,66.85
2019-03-23T21:05:36.637Z,66.57
2019-03-23T21:08:05.044Z,68.78
2019-03-23T21:10:37.071Z,70.10
2019-03-23T21:13:09.188Z,69.80
2019-03-23T21:15:43.324Z,67.22
2019-03-23T21:18:19.943Z,70.87
2019-03-23T21:20:51.245Z,62.40
2019-03-23T21:23:19.756Z,73.87
2019-03-23T21:25:56.851Z,65.57
2019-03-23T21:28:25.542Z,69.95
2019-03-23T21:30:54.351Z,75.87
2019-03-23T21:33:22.818Z,74.12
2019-03-23T21:35:51.317Z,70.75
2019-03-23T21:38:19.772Z,71.35
2019-03-23T21:40:48.240Z,66.70
2019-03-23T21:43:16.705Z,70.35
2019-03-23T21:45:45.347Z,77.62
2019-03-23T21:48:13.794Z,67.30
2019-03-23T21:50:47.371Z,76.70
2019-03-23T21:53:12.697Z,78.72
2019-03-23T21:55:41.173Z,72.35
2019-03-23T21:58:09.592Z,78.05
2019-03-23T22:00:38.153Z,80.32
2019-03-23T22:03:06.665Z,86.55
2019-03-23T22:05:35.242Z,70.42
2019-03-23T22:08:03.691Z,77.72
2019-03-23T22:10:32.123Z,80.42
2019-03-23T22:13:19.943Z,76.00
2019-03-23T22:15:48.502Z,78.28
2019-03-23T22:18:17.230Z,76.12
2019-03-23T22:20:45.716Z,77.87
2019-03-23T22:23:14.356Z,78.45
2019-03-23T22:25:45.689Z,77.22
2019-03-23T22:28:14.155Z,77.20
2019-03-23T22:30:42.594Z,79.32
2019-03-23T22:33:11.063Z,72.35
2019-03-23T22:35:40.619Z,83.87
2019-03-23T22:38:09.123Z,77.87
2019-03-23T22:40:37.587Z,76.37
2019-03-23T22:43:05.998Z,81.82
2019-03-23T22:45:35.827Z,89.35
2019-03-23T22:48:04.498Z,83.40
2019-03-23T22:50:33.033Z,78.78
2019-03-23T22:53:01.505Z,85.17
2019-03-23T22:55:30.023Z,84.50
2019-03-23T22:57:58.542Z,83.70
2019-03-23T23:00:43.944Z,84.30
2019-03-23T23:03:13.699Z,82.57
2019-03-23T23:05:42.290Z,83.35
2019-03-23T23:08:10.750Z,82.85
2019-03-23T23:10:39.286Z,83.35
2019-03-23T23:13:07.842Z,85.75
2019-03-23T23:15:55.593Z,85.00
2019-03-23T23:18:24.119Z,89.40
2019-03-23T23:20:52.578Z,93.65
2019-03-23T23:23:21.108Z,91.82
2019-03-23T23:25:49.551Z,86.28
2019-03-23T23:28:17.999Z,93.65
2019-03-23T23:30:46.673Z,92.60
2019-03-23T23:33:15.238Z,90.07
2019-03-23T23:35:43.736Z,93.47
2019-03-23T23:38:12.205Z,94.30
2019-03-23T23:40:40.722Z,91.65
2019-03-23T23:43:09.179Z,88.52
2019-03-23T23:45:37.668Z,97.82
2019-03-23T23:48:06.246Z,85.83
2019-03-23T23:50:34.723Z,88.75
2019-03-23T23:53:03.229Z,90.28
2019-03-23T23:55:31.964Z,89.77
2019-03-23T23:58:00.493Z,91.32
